Fallon Naval Air Station /Van Voorhis Field
KNFL : now visible

Airfield :











YOU CAN JOIN US ON...

 
LOGIN :

Register | Disclaimer

   EN    FR    IT 

 









Legend :    VFR   Marginal VFR   IFR   Intensive IFR   Very Intensive IFR
Visi :
Ceiling :
>= 8 km
>= 3000ft
5 to 8 km
1000 to 3000 ft
1500m to 5 km
500 to 1000 ft
800 to 1500m
200 to 500 ft
< 800m
< 200 ft
Symbols :   Thunderstorms  Fog  Heavy snow  Heavy precipitations  Wind > 20 kt






- Airport Elevation : 3934 ft


KNFL - Fallon Naval Air Station /Van Voorhis Field

CURRENT METAR :
  • 251956Z 00000KT 10SM FEW080 26/M03 A3023 RMK AO2 SLP198 T02611033

EXPIRED METARs :
  • 251856Z VRB03KT 10SM CLR 25/M02 A3025 RMK AO2 SLP206 T02501017

TAF COR TAF KNFL
Valid from the 24 at 23:00 until the 25 at 23:00 UTC


2423/2523 VRB06KT 9999 SKC QNH3016INS LAST NO AMDS AFT 2423 NEXT 2615 T09/2513Z T28/2521Z COR 0245 FS30186
KZOA FIR / North America



MET'MAP, your aeronautical weather chart ! - Copyright ORBIFLY December 2007 - Disclaimer

ORBIFLY MET'MAP TEAM :

Programming & Development : Alexandra Zaïnal
Original concept : Baudouin d'Aumeries
Technical & hardware support : Manuel Goepfert
Assistance : Marc-Olivier Méhu




SOURCES & CREDITS :

   NOAA       Earth
Advisory